createdAt,value
2018-12-05T00:00:53.301Z,96.50
2018-12-05T00:01:56.686Z,96.50
2018-12-05T00:03:00.078Z,96.40
2018-12-05T00:04:03.490Z,96.40
2018-12-05T00:05:07.146Z,96.30
2018-12-05T00:06:10.539Z,96.30
2018-12-05T00:07:14.030Z,96.20
2018-12-05T00:08:17.425Z,96.20
2018-12-05T00:09:20.819Z,96.20
2018-12-05T00:10:24.271Z,96.10
2018-12-05T00:11:27.648Z,96.20
2018-12-05T00:12:31.032Z,96.20
2018-12-05T00:13:34.509Z,96.20
2018-12-05T00:14:37.894Z,96.10
2018-12-05T00:15:41.277Z,96.10
2018-12-05T00:16:44.670Z,96.20
2018-12-05T00:17:48.094Z,96.20
2018-12-05T00:18:51.523Z,96.20
2018-12-05T00:19:54.957Z,96.20
2018-12-05T00:20:58.343Z,96.20
2018-12-05T00:22:01.724Z,96.20
2018-12-05T00:23:05.128Z,96.20
2018-12-05T00:24:08.987Z,96.20
2018-12-05T00:25:12.474Z,96.20
2018-12-05T00:26:15.866Z,96.20
2018-12-05T00:27:19.263Z,96.20
2018-12-05T00:28:22.671Z,96.10
2018-12-05T00:29:26.055Z,96.10
2018-12-05T00:30:29.450Z,96.10
2018-12-05T00:31:32.843Z,96.10
2018-12-05T00:32:36.383Z,96.30
2018-12-05T00:33:39.755Z,96.10
2018-12-05T00:34:43.143Z,96.00
2018-12-05T00:35:46.533Z,96.00
2018-12-05T00:36:49.922Z,96.10
2018-12-05T00:37:53.305Z,96.10
2018-12-05T00:38:56.692Z,96.10
2018-12-05T00:40:00.090Z,96.10
2018-12-05T00:41:03.463Z,96.10
2018-12-05T00:42:06.834Z,96.10
2018-12-05T00:43:10.232Z,96.10
2018-12-05T00:44:13.630Z,96.00
2018-12-05T00:45:17.063Z,96.00
2018-12-05T00:46:20.445Z,96.00
2018-12-05T00:47:23.859Z,96.00
2018-12-05T00:48:27.231Z,95.90
2018-12-05T00:49:30.610Z,95.90
2018-12-05T00:50:34.015Z,95.90
2018-12-05T00:51:37.423Z,95.90
2018-12-05T00:52:40.835Z,95.90
2018-12-05T00:53:44.264Z,95.90
2018-12-05T00:54:47.677Z,95.90
2018-12-05T00:55:51.053Z,95.80
2018-12-05T00:56:54.442Z,95.80
2018-12-05T00:57:57.850Z,95.70
2018-12-05T00:59:01.259Z,95.70
2018-12-05T01:00:05.726Z,95.70
2018-12-05T01:01:09.112Z,95.70
2018-12-05T01:02:12.486Z,95.70
2018-12-05T01:03:15.904Z,95.70
2018-12-05T01:04:19.283Z,95.70
2018-12-05T01:05:22.726Z,95.70
2018-12-05T01:06:26.332Z,95.70
2018-12-05T01:07:29.720Z,95.70
2018-12-05T01:08:33.108Z,95.70
2018-12-05T01:09:38.524Z,95.70
2018-12-05T01:10:41.914Z,95.90
2018-12-05T01:11:45.314Z,96.00
2018-12-05T01:12:48.706Z,95.70
2018-12-05T01:13:52.099Z,95.70
2018-12-05T01:14:55.478Z,95.70
2018-12-05T01:15:58.891Z,95.70
2018-12-05T01:17:02.271Z,95.70
2018-12-05T01:18:05.705Z,95.60
2018-12-05T01:19:09.101Z,95.60
2018-12-05T01:20:12.481Z,95.60
2018-12-05T01:21:15.877Z,95.60
2018-12-05T01:22:19.272Z,95.60
2018-12-05T01:23:23.072Z,95.60
2018-12-05T01:24:26.450Z,95.50
2018-12-05T01:25:29.842Z,95.50
2018-12-05T01:26:33.260Z,95.50
2018-12-05T01:27:36.647Z,95.50
2018-12-05T01:28:40.243Z,95.40
2018-12-05T01:29:43.623Z,95.40
2018-12-05T01:30:47.006Z,95.40
2018-12-05T01:31:50.398Z,95.40
2018-12-05T01:32:53.792Z,95.40
2018-12-05T01:33:57.310Z,95.40
2018-12-05T01:35:00.697Z,95.60
2018-12-05T01:36:04.109Z,95.40
2018-12-05T01:37:07.494Z,95.40
2018-12-05T01:38:10.883Z,95.60
2018-12-05T01:39:14.267Z,95.30
2018-12-05T01:40:17.652Z,95.40
2018-12-05T01:41:21.322Z,95.60
2018-12-05T01:42:24.721Z,95.40
2018-12-05T01:43:32.335Z,95.40
2018-12-05T01:44:35.715Z,95.40
2018-12-05T01:45:39.094Z,95.40
2018-12-05T01:46:42.510Z,95.40
2018-12-05T01:47:45.909Z,95.70
2018-12-05T01:48:49.310Z,95.40
2018-12-05T01:49:52.706Z,95.40
2018-12-05T01:50:56.106Z,95.40
2018-12-05T01:51:59.530Z,95.40
2018-12-05T01:53:02.911Z,95.40
2018-12-05T01:54:06.319Z,95.40
2018-12-05T01:55:09.696Z,95.50
2018-12-05T01:56:13.093Z,95.50
2018-12-05T01:57:16.510Z,95.50
2018-12-05T01:58:19.906Z,95.50
2018-12-05T01:59:23.297Z,95.50
2018-12-05T02:00:26.692Z,95.50
2018-12-05T02:01:30.159Z,95.50
2018-12-05T02:02:33.543Z,95.40
2018-12-05T02:03:36.950Z,95.60
2018-12-05T02:04:40.344Z,95.40
2018-12-05T02:05:43.743Z,95.50
2018-12-05T02:06:47.138Z,95.50
2018-12-05T02:07:50.539Z,95.50
2018-12-05T02:08:53.931Z,95.40
2018-12-05T02:09:57.334Z,95.50
2018-12-05T02:11:00.747Z,95.50
2018-12-05T02:12:04.151Z,95.50
2018-12-05T02:13:07.540Z,95.50
2018-12-05T02:14:10.927Z,95.50
2018-12-05T02:15:14.317Z,95.50
2018-12-05T02:16:17.745Z,95.50
2018-12-05T02:17:21.151Z,95.50
2018-12-05T02:18:24.540Z,95.50
2018-12-05T02:19:27.926Z,95.80
2018-12-05T02:20:31.335Z,95.60
2018-12-05T02:21:34.715Z,95.60
2018-12-05T02:22:38.164Z,95.60
2018-12-05T02:23:41.539Z,95.50
2018-12-05T02:24:44.938Z,95.50
2018-12-05T02:25:48.350Z,95.50
2018-12-05T02:26:51.742Z,95.60
2018-12-05T02:27:55.149Z,95.60
2018-12-05T02:28:58.600Z,95.80
2018-12-05T02:30:01.985Z,95.60
2018-12-05T02:31:05.388Z,95.90
2018-12-05T02:32:08.793Z,95.60
2018-12-05T02:33:12.192Z,95.60
2018-12-05T02:34:15.573Z,95.60
2018-12-05T02:35:19.053Z,95.60
2018-12-05T02:36:22.460Z,95.50
2018-12-05T02:37:25.861Z,95.60
2018-12-05T02:38:29.263Z,95.60
2018-12-05T02:39:32.656Z,95.50
2018-12-05T02:40:36.046Z,95.60
2018-12-05T02:41:39.650Z,95.80
2018-12-05T02:42:43.065Z,95.60
2018-12-05T02:43:46.444Z,95.60
2018-12-05T02:44:49.842Z,95.60
2018-12-05T02:45:53.240Z,95.60
2018-12-05T02:46:56.650Z,95.60
2018-12-05T02:48:00.075Z,95.60
2018-12-05T02:49:03.462Z,95.70
2018-12-05T02:50:06.876Z,95.70
2018-12-05T02:51:10.383Z,95.70
2018-12-05T02:52:13.854Z,95.80
2018-12-05T02:53:17.234Z,95.80
2018-12-05T02:54:20.645Z,95.80
2018-12-05T02:55:24.171Z,95.80
2018-12-05T02:56:27.554Z,95.80
2018-12-05T02:57:30.982Z,95.70
2018-12-05T02:58:34.363Z,95.70
2018-12-05T02:59:37.764Z,95.70
2018-12-05T03:00:41.241Z,95.70
2018-12-05T03:01:44.820Z,95.70
2018-12-05T03:02:48.259Z,95.70
2018-12-05T03:03:51.655Z,95.70
2018-12-05T03:04:55.080Z,95.70
2018-12-05T03:05:58.481Z,95.80
2018-12-05T03:07:01.878Z,95.70
2018-12-05T03:08:05.350Z,95.70
2018-12-05T03:09:08.991Z,95.60
2018-12-05T03:10:12.379Z,95.60
2018-12-05T03:11:15.767Z,95.60
2018-12-05T03:12:19.151Z,95.90
2018-12-05T03:13:22.570Z,95.70
2018-12-05T03:14:26.155Z,95.80
2018-12-05T03:15:29.554Z,95.80
2018-12-05T03:16:32.939Z,95.80
2018-12-05T03:17:36.378Z,95.80
2018-12-05T03:18:39.818Z,95.80
2018-12-05T03:19:43.215Z,95.70
2018-12-05T03:20:46.673Z,95.70
2018-12-05T03:21:50.104Z,95.70
2018-12-05T03:22:53.527Z,95.60
2018-12-05T03:23:57.081Z,95.60
2018-12-05T03:25:00.510Z,95.60
2018-12-05T03:26:03.910Z,95.60
2018-12-05T03:27:07.333Z,95.50
2018-12-05T03:28:10.768Z,95.50
2018-12-05T03:29:14.163Z,95.40
2018-12-05T03:30:17.559Z,95.40
2018-12-05T03:31:21.045Z,95.40
2018-12-05T03:32:24.437Z,95.40
2018-12-05T03:33:28.120Z,95.40
2018-12-05T03:34:31.501Z,95.40
2018-12-05T03:35:39.017Z,95.40
2018-12-05T03:36:42.499Z,95.40
2018-12-05T03:37:45.902Z,95.40
2018-12-05T03:38:49.310Z,95.40
2018-12-05T03:39:52.720Z,95.50
2018-12-05T03:40:56.177Z,95.50
2018-12-05T03:41:59.570Z,95.50
2018-12-05T03:43:02.973Z,95.50
2018-12-05T03:44:06.465Z,95.50
2018-12-05T03:45:09.972Z,95.40
2018-12-05T03:46:13.370Z,95.50
2018-12-05T03:47:16.780Z,95.50
2018-12-05T03:48:20.169Z,95.50
2018-12-05T03:49:23.584Z,95.50
2018-12-05T03:50:26.999Z,95.50
2018-12-05T03:51:30.399Z,95.50
2018-12-05T03:52:33.791Z,95.50
2018-12-05T03:53:37.370Z,95.50
2018-12-05T03:54:40.755Z,95.60
2018-12-05T03:55:44.151Z,95.60
2018-12-05T03:56:47.539Z,95.60
2018-12-05T03:57:50.943Z,95.70
2018-12-05T03:58:54.345Z,95.70
2018-12-05T03:59:57.727Z,96.00
2018-12-05T04:01:01.098Z,95.70
2018-12-05T04:02:04.505Z,95.70
2018-12-05T04:03:07.893Z,95.70
2018-12-05T04:04:11.296Z,95.70
2018-12-05T04:05:14.694Z,95.70
2018-12-05T04:06:18.186Z,95.80
2018-12-05T04:07:21.590Z,95.80
2018-12-05T04:08:25.015Z,95.90
2018-12-05T04:09:28.423Z,95.90
2018-12-05T04:10:31.822Z,95.90
2018-12-05T04:11:35.233Z,95.90
2018-12-05T04:12:40.714Z,96.00
2018-12-05T04:13:44.182Z,96.00
2018-12-05T04:14:47.594Z,96.00
2018-12-05T04:15:51.004Z,96.00
2018-12-05T04:16:54.394Z,95.90
2018-12-05T04:17:57.787Z,95.90
2018-12-05T04:19:01.190Z,96.00
2018-12-05T04:20:04.739Z,96.00
2018-12-05T04:21:08.137Z,95.90
2018-12-05T04:22:11.530Z,95.90
2018-12-05T04:23:15.111Z,95.90
2018-12-05T04:24:18.530Z,95.90
2018-12-05T04:25:21.931Z,95.90
2018-12-05T04:27:28.431Z,95.50
2018-12-05T04:28:31.815Z,95.90
2018-12-05T04:29:35.210Z,95.70
2018-12-05T04:30:38.619Z,95.70
2018-12-05T04:31:41.998Z,95.90
2018-12-05T04:32:45.528Z,95.60
2018-12-05T04:33:48.918Z,95.60
2018-12-05T04:34:52.316Z,95.60
2018-12-05T04:35:55.711Z,95.60
2018-12-05T04:36:59.131Z,95.50
2018-12-05T04:38:02.527Z,95.50
2018-12-05T04:39:08.278Z,95.60
2018-12-05T04:40:11.687Z,95.60
2018-12-05T04:41:15.071Z,95.50
2018-12-05T04:42:18.481Z,95.50
2018-12-05T04:43:21.879Z,95.50
2018-12-05T04:44:25.306Z,95.50
2018-12-05T04:45:28.708Z,95.50
2018-12-05T04:46:32.107Z,95.50
2018-12-05T04:47:35.513Z,95.50
2018-12-05T04:48:38.912Z,95.50
2018-12-05T04:49:42.337Z,95.50
2018-12-05T04:50:45.734Z,95.50
2018-12-05T04:51:49.124Z,95.40
2018-12-05T04:52:52.506Z,95.40
2018-12-05T04:53:55.887Z,95.30
2018-12-05T04:54:59.321Z,95.30
2018-12-05T04:56:02.723Z,95.30
2018-12-05T04:57:06.119Z,95.30
2018-12-05T04:58:09.503Z,95.30
2018-12-05T04:59:12.958Z,95.20
2018-12-05T05:00:16.379Z,95.40
2018-12-05T05:01:19.776Z,95.20
2018-12-05T05:02:23.158Z,95.20
2018-12-05T05:03:26.559Z,95.20
2018-12-05T05:04:29.950Z,95.20
2018-12-05T05:05:33.662Z,95.20
2018-12-05T05:06:41.655Z,95.20
2018-12-05T05:07:42.443Z,95.20
2018-12-05T05:08:45.857Z,95.20
2018-12-05T05:09:49.351Z,95.00
2018-12-05T05:10:52.751Z,95.20
2018-12-05T05:11:56.143Z,95.20
2018-12-05T05:12:59.549Z,95.20
2018-12-05T05:14:02.918Z,95.30
2018-12-05T05:15:06.345Z,95.30
2018-12-05T05:16:09.845Z,95.40
2018-12-05T05:17:13.299Z,95.30
2018-12-05T05:18:16.699Z,95.30
2018-12-05T05:19:20.251Z,95.40
2018-12-05T05:20:23.641Z,95.30
2018-12-05T05:21:27.041Z,95.30
2018-12-05T05:22:30.552Z,95.30
2018-12-05T05:23:33.953Z,95.20
2018-12-05T05:24:37.341Z,95.20
2018-12-05T05:25:40.785Z,95.20
2018-12-05T05:26:44.162Z,95.30
2018-12-05T05:27:47.566Z,95.30
2018-12-05T05:28:50.990Z,95.20
2018-12-05T05:29:54.450Z,95.20
2018-12-05T05:30:57.823Z,95.30
2018-12-05T05:32:01.262Z,95.20
2018-12-05T05:33:04.652Z,95.20
2018-12-05T05:34:08.079Z,95.20
2018-12-05T05:35:11.470Z,95.20
2018-12-05T05:36:14.884Z,95.30
2018-12-05T05:37:18.268Z,95.60
2018-12-05T05:38:21.671Z,95.40
2018-12-05T05:39:25.050Z,95.50
2018-12-05T05:40:28.451Z,95.30
2018-12-05T05:41:31.851Z,95.30
2018-12-05T05:42:35.269Z,95.20
2018-12-05T05:43:38.662Z,95.20
2018-12-05T05:44:42.063Z,95.30
2018-12-05T05:45:45.486Z,95.20
2018-12-05T05:46:48.868Z,95.20
2018-12-05T05:47:52.255Z,95.20
2018-12-05T05:48:55.638Z,95.20
2018-12-05T05:49:59.059Z,95.10
2018-12-05T05:51:02.467Z,95.10
2018-12-05T05:52:05.950Z,95.10
2018-12-05T05:53:09.339Z,95.10
2018-12-05T05:54:12.742Z,95.00
2018-12-05T05:55:16.130Z,95.00
2018-12-05T05:56:19.541Z,95.00
2018-12-05T05:57:22.992Z,94.70
2018-12-05T05:58:26.455Z,94.90
2018-12-05T05:59:29.964Z,94.80
2018-12-05T06:00:33.406Z,94.80
2018-12-05T06:01:36.822Z,94.80
2018-12-05T06:02:40.199Z,94.80
2018-12-05T06:03:43.622Z,95.10
2018-12-05T06:04:47.003Z,94.80
2018-12-05T06:05:50.393Z,94.90
2018-12-05T06:06:53.793Z,94.90
2018-12-05T06:07:57.182Z,94.90
2018-12-05T06:09:00.563Z,94.80
2018-12-05T06:10:04.216Z,94.90
2018-12-05T06:11:07.631Z,94.90
2018-12-05T06:12:11.035Z,94.90
2018-12-05T06:13:14.435Z,94.80
2018-12-05T06:14:17.826Z,94.90
2018-12-05T06:15:21.203Z,94.80
2018-12-05T06:16:24.582Z,94.80
2018-12-05T06:17:27.994Z,94.70
2018-12-05T06:18:31.374Z,94.70
2018-12-05T06:19:34.775Z,94.70
2018-12-05T06:20:38.168Z,94.70
2018-12-05T06:21:41.670Z,94.70
2018-12-05T06:22:45.194Z,94.70
2018-12-05T06:23:48.578Z,94.70
2018-12-05T06:24:51.966Z,94.70
2018-12-05T06:25:55.355Z,94.90
2018-12-05T06:26:58.746Z,94.60
2018-12-05T06:28:02.241Z,94.50
2018-12-05T06:29:05.619Z,94.50
2018-12-05T06:30:08.998Z,94.50
2018-12-05T06:31:12.378Z,94.50
2018-12-05T06:32:15.753Z,94.50
2018-12-05T06:33:19.172Z,94.50
2018-12-05T06:34:22.551Z,94.60
2018-12-05T06:35:25.938Z,94.70
2018-12-05T06:36:29.313Z,94.60
2018-12-05T06:37:32.690Z,94.60
2018-12-05T06:38:36.103Z,94.70
2018-12-05T06:39:39.549Z,94.70
2018-12-05T06:40:42.943Z,94.70
2018-12-05T06:41:46.378Z,95.00
2018-12-05T06:42:49.764Z,94.70
2018-12-05T06:43:53.326Z,94.70
2018-12-05T06:44:56.707Z,94.70
2018-12-05T06:46:00.107Z,94.80
2018-12-05T06:47:03.487Z,94.80
2018-12-05T06:48:06.903Z,94.80
2018-12-05T06:49:10.327Z,94.90
2018-12-05T06:50:13.728Z,94.90
2018-12-05T06:51:17.179Z,94.90
2018-12-05T06:52:20.579Z,94.90
2018-12-05T06:53:23.972Z,94.90
2018-12-05T06:54:27.440Z,95.10
2018-12-05T06:55:30.866Z,94.80
2018-12-05T06:56:34.283Z,94.80
2018-12-05T06:57:37.730Z,94.60
2018-12-05T06:58:41.139Z,94.80
2018-12-05T06:59:44.546Z,94.80
2018-12-05T07:00:47.970Z,94.90
2018-12-05T07:01:51.371Z,94.80
2018-12-05T07:02:54.770Z,94.80
2018-12-05T07:03:58.161Z,94.80
2018-12-05T07:05:01.571Z,95.00
2018-12-05T07:06:04.988Z,94.60
2018-12-05T07:07:08.452Z,94.80
2018-12-05T07:08:11.838Z,94.80
2018-12-05T07:09:15.254Z,94.80
2018-12-05T07:10:18.742Z,94.80
2018-12-05T07:11:22.120Z,94.80
2018-12-05T07:12:25.535Z,94.90
2018-12-05T07:13:29.014Z,94.90
2018-12-05T07:14:32.394Z,95.10
2018-12-05T07:15:35.842Z,94.80
2018-12-05T07:16:39.250Z,94.80
2018-12-05T07:17:42.783Z,94.80
2018-12-05T07:18:46.174Z,94.80
2018-12-05T07:19:49.581Z,94.80
2018-12-05T07:20:53.007Z,94.90
2018-12-05T07:21:56.419Z,94.90
2018-12-05T07:22:59.875Z,94.90
2018-12-05T07:24:03.309Z,94.80
2018-12-05T07:25:07.005Z,94.80
2018-12-05T07:26:10.539Z,94.80
2018-12-05T07:27:13.958Z,94.70
2018-12-05T07:28:17.352Z,94.70
2018-12-05T07:29:20.743Z,94.70
2018-12-05T07:30:29.409Z,94.60
2018-12-05T07:31:29.598Z,94.90
2018-12-05T07:32:32.994Z,94.60
2018-12-05T07:33:36.430Z,94.60
2018-12-05T07:34:39.840Z,94.60
2018-12-05T07:35:43.236Z,94.60
2018-12-05T07:36:46.634Z,94.70
2018-12-05T07:37:50.041Z,94.70
2018-12-05T07:38:53.439Z,94.70
2018-12-05T07:39:56.894Z,94.60
2018-12-05T07:41:00.331Z,94.60
2018-12-05T07:42:03.754Z,94.70
2018-12-05T07:43:07.167Z,94.60
2018-12-05T07:44:10.582Z,94.60
2018-12-05T07:45:13.985Z,94.60
2018-12-05T07:46:17.456Z,94.60
2018-12-05T07:47:20.871Z,94.60
2018-12-05T07:48:24.280Z,94.60
2018-12-05T07:49:27.676Z,94.60
2018-12-05T07:50:31.123Z,94.60
2018-12-05T07:51:34.511Z,94.60
2018-12-05T07:52:38.039Z,94.70
2018-12-05T07:53:41.439Z,94.90
2018-12-05T07:54:44.842Z,94.70
2018-12-05T07:55:48.239Z,94.70
2018-12-05T07:56:52.285Z,94.70
2018-12-05T07:57:55.735Z,94.70
2018-12-05T07:58:59.183Z,94.70
2018-12-05T08:00:02.618Z,94.60
2018-12-05T08:01:06.077Z,94.60
2018-12-05T08:02:09.517Z,94.60
2018-12-05T08:03:12.920Z,94.60
2018-12-05T08:04:16.309Z,94.60
2018-12-05T08:05:19.789Z,94.50
2018-12-05T08:06:23.247Z,94.50
2018-12-05T08:07:26.643Z,94.60
2018-12-05T08:08:30.076Z,94.90
2018-12-05T08:09:33.498Z,94.60
2018-12-05T08:10:36.920Z,94.60
2018-12-05T08:11:40.439Z,94.50
2018-12-05T08:12:43.904Z,94.60
2018-12-05T08:13:47.330Z,94.90
2018-12-05T08:14:50.872Z,94.60
2018-12-05T08:15:54.307Z,94.60
2018-12-05T08:16:57.707Z,94.50
2018-12-05T08:18:01.140Z,94.50
2018-12-05T08:19:04.543Z,94.50
2018-12-05T08:20:07.932Z,94.60
2018-12-05T08:21:11.336Z,94.60
2018-12-05T08:22:14.739Z,94.60
2018-12-05T08:23:18.139Z,94.60
2018-12-05T08:24:21.562Z,94.60
2018-12-05T08:25:24.965Z,94.60
2018-12-05T08:26:28.380Z,94.50
2018-12-05T08:27:31.977Z,94.40
2018-12-05T08:28:35.384Z,94.40
2018-12-05T08:29:40.093Z,94.40
2018-12-05T08:30:43.620Z,94.30
2018-12-05T08:31:47.207Z,94.30
2018-12-05T08:32:50.620Z,94.30
2018-12-05T08:33:54.105Z,94.30
2018-12-05T08:34:57.613Z,94.50
2018-12-05T08:36:01.074Z,94.30
2018-12-05T08:37:06.553Z,94.30
2018-12-05T08:38:10.872Z,94.30
2018-12-05T08:39:16.525Z,94.30
2018-12-05T08:40:21.872Z,94.30
2018-12-05T08:41:30.584Z,94.20
2018-12-05T08:42:34.582Z,94.40
2018-12-05T08:43:41.019Z,94.20
2018-12-05T08:44:47.903Z,94.10
2018-12-05T08:45:58.154Z,94.10
2018-12-05T08:47:17.204Z,94.00
2018-12-05T08:48:23.102Z,94.10
2018-12-05T08:49:30.865Z,94.10
2018-12-05T08:50:40.609Z,94.10
2018-12-05T08:51:46.532Z,94.20
2018-12-05T08:52:54.065Z,94.20
2018-12-05T08:54:02.284Z,94.30
2018-12-05T08:55:12.181Z,94.20
2018-12-05T08:56:18.470Z,94.20
2018-12-05T08:57:23.202Z,94.20
2018-12-05T08:59:44.251Z,94.20
2018-12-05T09:00:51.922Z,94.20
2018-12-05T09:02:00.169Z,94.30
2018-12-05T09:03:08.908Z,94.20
2018-12-05T09:04:13.945Z,94.20
2018-12-05T09:05:25.058Z,94.30
2018-12-05T09:06:32.799Z,94.30
2018-12-05T09:07:41.199Z,94.30
2018-12-05T09:08:49.941Z,94.30
2018-12-05T09:09:56.366Z,94.30
2018-12-05T09:11:03.516Z,94.20
2018-12-05T09:12:12.372Z,94.20
2018-12-05T09:13:21.130Z,94.20
2018-12-05T09:14:30.274Z,94.20
2018-12-05T09:15:37.855Z,94.30
2018-12-05T09:16:48.824Z,94.30
2018-12-05T09:17:55.904Z,94.30
2018-12-05T09:19:01.052Z,94.30
2018-12-05T09:20:11.864Z,94.30
2018-12-05T09:21:19.777Z,94.30
2018-12-05T09:22:26.427Z,94.30
2018-12-05T09:23:32.891Z,94.30
2018-12-05T09:24:39.281Z,94.40
2018-12-05T09:25:46.023Z,94.30
2018-12-05T09:26:54.737Z,94.20
2018-12-05T09:28:08.258Z,94.30
2018-12-05T09:29:19.072Z,94.20
2018-12-05T09:30:34.260Z,94.20
2018-12-05T09:31:41.315Z,94.30
2018-12-05T09:32:49.795Z,94.20
2018-12-05T09:33:58.768Z,94.20
2018-12-05T09:35:04.780Z,94.20
2018-12-05T09:36:13.782Z,94.30
2018-12-05T09:37:22.357Z,94.30
2018-12-05T09:38:33.677Z,94.30
2018-12-05T09:39:43.462Z,94.30
2018-12-05T09:40:56.652Z,94.30
2018-12-05T09:42:06.986Z,94.30
2018-12-05T09:43:22.171Z,94.20
2018-12-05T09:44:31.148Z,94.30
2018-12-05T09:45:46.749Z,94.30
2018-12-05T09:46:57.825Z,94.30
2018-12-05T09:48:12.202Z,94.20
2018-12-05T09:49:21.348Z,94.10
2018-12-05T09:50:24.804Z,94.10
2018-12-05T09:51:28.208Z,94.10
2018-12-05T09:52:31.652Z,94.40
2018-12-05T09:53:35.034Z,94.20
2018-12-05T09:54:38.459Z,94.20
2018-12-05T09:55:42.010Z,94.00
2018-12-05T09:56:45.419Z,94.10
2018-12-05T09:57:48.867Z,94.20
2018-12-05T09:58:53.016Z,94.10
2018-12-05T09:59:56.658Z,94.40
2018-12-05T10:01:00.094Z,94.10
2018-12-05T10:02:03.494Z,94.00
2018-12-05T10:03:07.083Z,94.00
2018-12-05T10:04:10.570Z,94.10
2018-12-05T10:05:14.058Z,94.10
2018-12-05T10:06:17.469Z,94.20
2018-12-05T10:07:20.952Z,94.20
2018-12-05T10:08:24.352Z,94.30
2018-12-05T10:09:27.744Z,94.30
2018-12-05T10:10:31.174Z,94.30
2018-12-05T10:11:34.598Z,94.30
2018-12-05T10:12:38.026Z,94.30
2018-12-05T10:13:41.492Z,94.30
2018-12-05T10:14:45.122Z,94.30
2018-12-05T10:15:48.521Z,94.30
2018-12-05T10:16:51.917Z,94.30
2018-12-05T10:17:55.443Z,94.30
2018-12-05T10:18:59.058Z,94.30
2018-12-05T10:20:02.511Z,94.30
2018-12-05T10:21:05.898Z,94.30
2018-12-05T10:22:09.365Z,94.30
2018-12-05T10:23:12.816Z,94.20
2018-12-05T10:24:16.227Z,94.20
2018-12-05T10:25:19.690Z,94.20
2018-12-05T10:26:23.112Z,94.20
2018-12-05T10:27:26.792Z,94.20
2018-12-05T10:28:30.187Z,94.20
2018-12-05T10:29:33.607Z,94.20
2018-12-05T10:30:37.018Z,94.30
2018-12-05T10:31:44.027Z,94.30
2018-12-05T10:32:45.822Z,94.30
2018-12-05T10:33:49.228Z,94.30
2018-12-05T10:34:52.642Z,94.30
2018-12-05T10:35:56.028Z,94.30
2018-12-05T10:36:59.439Z,94.30
2018-12-05T10:38:02.851Z,94.30
2018-12-05T10:39:07.710Z,94.40
2018-12-05T10:40:11.170Z,94.40
2018-12-05T10:41:14.596Z,94.30
2018-12-05T10:42:18.026Z,94.50
2018-12-05T10:43:21.528Z,94.30
2018-12-05T10:44:25.056Z,94.30
2018-12-05T10:45:28.465Z,94.20
2018-12-05T10:46:31.855Z,94.20
2018-12-05T10:47:35.246Z,94.40
2018-12-05T10:48:38.672Z,94.20
2018-12-05T10:49:42.180Z,94.20
2018-12-05T10:50:45.582Z,94.20
2018-12-05T10:51:49.024Z,94.20
2018-12-05T10:52:52.523Z,94.20
2018-12-05T10:53:55.959Z,94.20
2018-12-05T10:54:59.440Z,94.20
2018-12-05T10:56:02.856Z,94.30
2018-12-05T10:57:06.282Z,94.30
2018-12-05T10:58:09.687Z,94.50
2018-12-05T10:59:13.093Z,94.30
2018-12-05T11:00:22.375Z,94.30
2018-12-05T11:02:32.001Z,94.30
2018-12-05T11:03:36.063Z,94.40
2018-12-05T11:04:44.779Z,94.30
2018-12-05T11:05:53.657Z,94.40
2018-12-05T11:07:02.512Z,94.40
2018-12-05T11:08:11.576Z,94.40
2018-12-05T11:09:20.307Z,94.60
2018-12-05T11:10:29.151Z,94.40
2018-12-05T11:11:37.943Z,94.40
2018-12-05T11:12:46.730Z,94.40
2018-12-05T11:13:55.622Z,94.50
2018-12-05T11:15:04.423Z,94.50
2018-12-05T11:17:13.082Z,94.50
2018-12-05T11:18:21.872Z,94.40
2018-12-05T11:19:30.620Z,94.40
2018-12-05T11:20:39.354Z,94.40
2018-12-05T11:22:48.978Z,94.60
2018-12-05T11:23:57.512Z,94.50
2018-12-05T11:25:08.448Z,94.40
2018-12-05T11:26:14.835Z,94.50
2018-12-05T11:27:18.223Z,94.50
2018-12-05T11:28:21.668Z,94.50
2018-12-05T11:29:25.083Z,94.50
2018-12-05T11:30:28.815Z,94.50
2018-12-05T11:31:32.252Z,94.40
2018-12-05T11:32:35.646Z,94.50
2018-12-05T11:33:39.255Z,94.50
2018-12-05T11:34:42.650Z,94.50
2018-12-05T11:35:46.067Z,94.50
2018-12-05T11:36:49.699Z,94.50
2018-12-05T11:37:53.097Z,94.40
2018-12-05T11:38:56.494Z,94.40
2018-12-05T11:39:59.940Z,94.40
2018-12-05T11:41:03.353Z,94.40
2018-12-05T11:42:06.744Z,94.30
2018-12-05T11:43:10.307Z,94.40
2018-12-05T11:44:13.814Z,94.40
2018-12-05T11:45:17.275Z,94.40
2018-12-05T11:46:20.684Z,94.50
2018-12-05T11:47:24.101Z,94.70
2018-12-05T11:48:27.594Z,94.60
2018-12-05T11:49:31.039Z,94.50
2018-12-05T11:50:34.831Z,94.60
2018-12-05T11:51:38.295Z,94.60
2018-12-05T11:52:41.703Z,94.60
2018-12-05T11:53:45.119Z,94.50
2018-12-05T11:54:48.634Z,94.50
2018-12-05T11:55:53.680Z,94.50
2018-12-05T11:56:58.419Z,94.30
2018-12-05T11:58:02.519Z,94.20
2018-12-05T11:59:09.423Z,94.20
2018-12-05T12:00:15.093Z,94.30
2018-12-05T12:01:18.710Z,94.30
2018-12-05T12:02:22.529Z,94.30
2018-12-05T12:03:26.056Z,94.40
2018-12-05T12:04:29.495Z,94.30
2018-12-05T12:05:32.938Z,94.30
2018-12-05T12:06:36.352Z,94.30
2018-12-05T12:07:39.781Z,94.30
2018-12-05T12:08:43.177Z,94.20
2018-12-05T12:09:46.585Z,94.20
2018-12-05T12:10:49.978Z,94.20
2018-12-05T12:11:53.366Z,94.20
2018-12-05T12:13:07.070Z,94.20
2018-12-05T12:14:10.510Z,94.30
2018-12-05T12:15:14.003Z,94.30
2018-12-05T12:16:17.595Z,94.30
2018-12-05T12:17:21.021Z,94.30
2018-12-05T12:18:24.407Z,94.30
2018-12-05T12:19:27.800Z,94.40
2018-12-05T12:20:31.190Z,94.40
2018-12-05T12:21:34.721Z,94.40
2018-12-05T12:22:38.130Z,94.30
2018-12-05T12:23:41.551Z,94.20
2018-12-05T12:24:44.947Z,94.20
2018-12-05T12:25:48.335Z,94.10
2018-12-05T12:26:51.810Z,94.10
2018-12-05T12:27:55.346Z,94.20
2018-12-05T12:28:58.794Z,94.20
2018-12-05T12:30:02.188Z,94.20
2018-12-05T12:31:06.414Z,94.30
2018-12-05T12:32:09.982Z,94.20
2018-12-05T12:33:13.401Z,94.10
2018-12-05T12:34:17.098Z,94.10
2018-12-05T12:35:20.493Z,94.20
2018-12-05T12:36:23.897Z,94.20
2018-12-05T12:37:27.346Z,94.20
2018-12-05T12:38:30.786Z,94.20
2018-12-05T12:39:34.251Z,94.10
2018-12-05T12:40:37.635Z,94.20
2018-12-05T12:41:41.125Z,94.10
2018-12-05T12:42:44.610Z,94.10
2018-12-05T12:43:48.050Z,94.40
2018-12-05T12:44:51.492Z,94.20
2018-12-05T12:45:54.915Z,94.20
2018-12-05T12:46:58.371Z,94.00
2018-12-05T12:48:01.846Z,94.20
2018-12-05T12:49:05.309Z,94.30
2018-12-05T12:50:08.780Z,94.20
2018-12-05T12:51:12.194Z,94.20
2018-12-05T12:52:15.607Z,94.10
2018-12-05T12:53:19.026Z,94.00
2018-12-05T12:54:22.479Z,94.00
2018-12-05T12:55:25.994Z,94.00
2018-12-05T12:56:29.511Z,94.10
2018-12-05T12:57:32.969Z,94.10
2018-12-05T12:58:36.377Z,93.60
2018-12-05T12:59:39.819Z,93.50
2018-12-05T13:00:43.247Z,93.40
2018-12-05T13:01:46.811Z,93.60
2018-12-05T13:02:50.204Z,93.30
2018-12-05T13:03:53.657Z,93.30
2018-12-05T13:04:57.154Z,93.30
2018-12-05T13:06:00.565Z,93.30
2018-12-05T13:07:03.977Z,93.60
2018-12-05T13:08:07.510Z,93.20
2018-12-05T13:09:11.017Z,93.20
2018-12-05T13:10:14.475Z,93.20
2018-12-05T13:11:17.871Z,93.30
2018-12-05T13:12:29.335Z,93.10
2018-12-05T13:13:32.822Z,93.20
2018-12-05T13:14:36.270Z,93.10
2018-12-05T13:15:39.818Z,93.10
2018-12-05T13:16:43.386Z,93.10
2018-12-05T13:17:46.831Z,93.20
2018-12-05T13:18:50.223Z,93.20
2018-12-05T13:19:53.674Z,93.20
2018-12-05T13:20:57.390Z,93.20
2018-12-05T13:22:00.902Z,93.20
2018-12-05T13:23:04.424Z,93.20
2018-12-05T13:24:07.959Z,93.30
2018-12-05T13:25:11.393Z,93.30
2018-12-05T13:26:14.801Z,93.30
2018-12-05T13:27:18.219Z,93.30
2018-12-05T13:28:21.715Z,93.40
2018-12-05T13:29:25.239Z,93.30
2018-12-05T13:30:28.663Z,93.40
2018-12-05T13:31:32.146Z,93.30
2018-12-05T13:32:35.534Z,93.40
2018-12-05T13:33:38.980Z,93.40
2018-12-05T13:34:42.451Z,93.50
2018-12-05T13:35:45.867Z,93.50
2018-12-05T13:36:49.353Z,93.50
2018-12-05T13:37:52.761Z,93.60
2018-12-05T13:38:56.279Z,93.60
2018-12-05T13:39:59.668Z,93.60
2018-12-05T13:41:03.435Z,93.60
2018-12-05T13:42:06.844Z,93.60
2018-12-05T13:43:10.445Z,93.60
2018-12-05T13:44:14.027Z,93.60
2018-12-05T13:45:17.435Z,93.70
2018-12-05T13:46:20.846Z,94.00
2018-12-05T13:47:24.241Z,93.70
2018-12-05T13:48:27.638Z,93.70
2018-12-05T13:49:31.066Z,93.70
2018-12-05T13:50:34.654Z,93.60